sensor_id;sensor_type;location;lat;lon;timestamp;P1;durP1;ratioP1;P2;durP2;ratioP2
43345;SDS011;28937;51.160;4.146;2023-03-23T00:00:46;2.08;;;1.00;;
43345;SDS011;28937;51.160;4.146;2023-03-23T00:03:12;1.65;;;0.70;;
43345;SDS011;28937;51.160;4.146;2023-03-23T00:05:38;2.83;;;1.00;;
43345;SDS011;28937;51.160;4.146;2023-03-23T00:08:06;3.05;;;1.23;;
43345;SDS011;28937;51.160;4.146;2023-03-23T00:10:34;1.63;;;1.10;;
43345;SDS011;28937;51.160;4.146;2023-03-23T00:13:00;3.60;;;1.20;;
43345;SDS011;28937;51.160;4.146;2023-03-23T00:15:27;2.22;;;1.10;;
43345;SDS011;28937;51.160;4.146;2023-03-23T00:17:58;4.15;;;1.33;;
43345;SDS011;28937;51.160;4.146;2023-03-23T00:20:28;2.88;;;0.98;;
43345;SDS011;28937;51.160;4.146;2023-03-23T00:23:05;3.28;;;1.40;;
43345;SDS011;28937;51.160;4.146;2023-03-23T00:25:31;2.08;;;1.00;;
43345;SDS011;28937;51.160;4.146;2023-03-23T00:27:57;2.00;;;1.20;;
43345;SDS011;28937;51.160;4.146;2023-03-23T00:30:23;2.20;;;1.20;;
43345;SDS011;28937;51.160;4.146;2023-03-23T00:32:48;1.45;;;0.90;;
43345;SDS011;28937;51.160;4.146;2023-03-23T00:35:15;1.65;;;0.73;;
43345;SDS011;28937;51.160;4.146;2023-03-23T00:37:42;1.70;;;0.98;;
43345;SDS011;28937;51.160;4.146;2023-03-23T00:40:08;2.53;;;0.95;;
43345;SDS011;28937;51.160;4.146;2023-03-23T00:42:35;1.70;;;1.02;;
43345;SDS011;28937;51.160;4.146;2023-03-23T00:45:01;3.58;;;1.05;;
43345;SDS011;28937;51.160;4.146;2023-03-23T00:47:29;2.47;;;1.20;;
43345;SDS011;28937;51.160;4.146;2023-03-23T00:49:55;1.10;;;0.80;;
43345;SDS011;28937;51.160;4.146;2023-03-23T00:52:21;2.05;;;0.80;;
43345;SDS011;28937;51.160;4.146;2023-03-23T00:54:47;2.38;;;1.08;;
43345;SDS011;28937;51.160;4.146;2023-03-23T00:57:12;1.73;;;1.00;;
43345;SDS011;28937;51.160;4.146;2023-03-23T00:59:38;2.20;;;1.00;;
43345;SDS011;28937;51.160;4.146;2023-03-23T01:02:03;2.78;;;1.13;;
43345;SDS011;28937;51.160;4.146;2023-03-23T01:04:29;2.15;;;1.20;;
43345;SDS011;28937;51.160;4.146;2023-03-23T01:06:56;2.95;;;1.25;;
43345;SDS011;28937;51.160;4.146;2023-03-23T01:09:22;1.90;;;0.70;;
43345;SDS011;28937;51.160;4.146;2023-03-23T01:11:49;1.80;;;0.65;;
43345;SDS011;28937;51.160;4.146;2023-03-23T01:14:16;1.58;;;0.82;;
43345;SDS011;28937;51.160;4.146;2023-03-23T01:16:44;1.70;;;0.90;;
43345;SDS011;28937;51.160;4.146;2023-03-23T01:19:09;2.65;;;0.68;;
43345;SDS011;28937;51.160;4.146;2023-03-23T01:21:36;1.52;;;0.55;;
43345;SDS011;28937;51.160;4.146;2023-03-23T01:24:01;2.30;;;0.88;;
43345;SDS011;28937;51.160;4.146;2023-03-23T01:26:27;1.75;;;0.75;;
43345;SDS011;28937;51.160;4.146;2023-03-23T01:28:53;1.35;;;0.98;;
43345;SDS011;28937;51.160;4.146;2023-03-23T01:31:21;2.70;;;0.88;;
43345;SDS011;28937;51.160;4.146;2023-03-23T01:33:48;1.50;;;0.63;;
43345;SDS011;28937;51.160;4.146;2023-03-23T01:36:18;1.55;;;0.80;;
43345;SDS011;28937;51.160;4.146;2023-03-23T01:38:54;2.35;;;0.90;;
43345;SDS011;28937;51.160;4.146;2023-03-23T01:41:20;2.08;;;1.20;;
43345;SDS011;28937;51.160;4.146;2023-03-23T01:46:29;0.98;;;0.50;;
43345;SDS011;28937;51.160;4.146;2023-03-23T01:48:58;2.17;;;0.80;;
43345;SDS011;28937;51.160;4.146;2023-03-23T01:51:31;1.83;;;0.82;;
43345;SDS011;28937;51.160;4.146;2023-03-23T01:54:00;1.88;;;0.70;;
43345;SDS011;28937;51.160;4.146;2023-03-23T01:56:31;1.40;;;0.75;;
43345;SDS011;28937;51.160;4.146;2023-03-23T01:59:03;1.08;;;0.70;;
43345;SDS011;28937;51.160;4.146;2023-03-23T02:01:29;1.00;;;0.52;;
43345;SDS011;28937;51.160;4.146;2023-03-23T02:03:55;1.08;;;0.50;;
43345;SDS011;28937;51.160;4.146;2023-03-23T02:06:22;1.73;;;0.70;;
43345;SDS011;28937;51.160;4.146;2023-03-23T02:08:49;1.73;;;0.80;;
43345;SDS011;28937;51.160;4.146;2023-03-23T02:11:17;2.35;;;0.88;;
43345;SDS011;28937;51.160;4.146;2023-03-23T02:13:44;1.98;;;0.60;;
43345;SDS011;28937;51.160;4.146;2023-03-23T02:26:59;2.03;;;0.73;;
43345;SDS011;28937;51.160;4.146;2023-03-23T02:29:31;3.13;;;1.10;;
43345;SDS011;28937;51.160;4.146;2023-03-23T02:34:56;1.50;;;0.60;;
43345;SDS011;28937;51.160;4.146;2023-03-23T02:37:43;1.55;;;0.57;;
43345;SDS011;28937;51.160;4.146;2023-03-23T02:40:20;1.85;;;0.65;;
43345;SDS011;28937;51.160;4.146;2023-03-23T02:42:52;0.88;;;0.50;;
43345;SDS011;28937;51.160;4.146;2023-03-23T02:45:20;0.82;;;0.40;;
43345;SDS011;28937;51.160;4.146;2023-03-23T02:47:48;1.38;;;0.47;;
43345;SDS011;28937;51.160;4.146;2023-03-23T02:50:17;1.70;;;0.60;;
43345;SDS011;28937;51.160;4.146;2023-03-23T02:52:46;1.48;;;0.50;;
43345;SDS011;28937;51.160;4.146;2023-03-23T02:55:13;2.17;;;0.52;;
43345;SDS011;28937;51.160;4.146;2023-03-23T02:57:40;1.13;;;0.50;;
43345;SDS011;28937;51.160;4.146;2023-03-23T03:00:11;1.65;;;0.63;;
43345;SDS011;28937;51.160;4.146;2023-03-23T03:02:39;3.25;;;0.70;;
43345;SDS011;28937;51.160;4.146;2023-03-23T03:07:58;2.75;;;0.88;;
43345;SDS011;28937;51.160;4.146;2023-03-23T03:10:54;2.38;;;0.68;;
43345;SDS011;28937;51.160;4.146;2023-03-23T03:21:25;1.85;;;0.73;;
43345;SDS011;28937;51.160;4.146;2023-03-23T03:23:55;1.77;;;0.45;;
43345;SDS011;28937;51.160;4.146;2023-03-23T03:26:25;2.13;;;0.80;;
43345;SDS011;28937;51.160;4.146;2023-03-23T03:28:52;4.45;;;0.98;;
43345;SDS011;28937;51.160;4.146;2023-03-23T03:31:20;1.92;;;0.70;;
43345;SDS011;28937;51.160;4.146;2023-03-23T03:33:56;1.88;;;0.70;;
43345;SDS011;28937;51.160;4.146;2023-03-23T03:36:27;2.42;;;0.45;;
43345;SDS011;28937;51.160;4.146;2023-03-23T03:38:59;1.75;;;0.55;;
43345;SDS011;28937;51.160;4.146;2023-03-23T03:43:56;2.45;;;0.95;;
43345;SDS011;28937;51.160;4.146;2023-03-23T03:46:22;3.25;;;0.77;;
43345;SDS011;28937;51.160;4.146;2023-03-23T03:48:51;3.03;;;0.40;;
43345;SDS011;28937;51.160;4.146;2023-03-23T03:51:17;2.05;;;0.50;;
43345;SDS011;28937;51.160;4.146;2023-03-23T03:53:43;3.80;;;1.10;;
43345;SDS011;28937;51.160;4.146;2023-03-23T03:56:08;1.85;;;0.60;;
43345;SDS011;28937;51.160;4.146;2023-03-23T03:58:34;2.65;;;0.82;;
43345;SDS011;28937;51.160;4.146;2023-03-23T04:01:01;2.88;;;0.60;;
43345;SDS011;28937;51.160;4.146;2023-03-23T04:03:27;3.70;;;0.70;;
43345;SDS011;28937;51.160;4.146;2023-03-23T04:05:56;3.58;;;0.80;;
43345;SDS011;28937;51.160;4.146;2023-03-23T04:08:22;3.97;;;0.88;;
43345;SDS011;28937;51.160;4.146;2023-03-23T04:10:48;2.13;;;0.73;;
43345;SDS011;28937;51.160;4.146;2023-03-23T04:13:14;2.65;;;0.60;;
43345;SDS011;28937;51.160;4.146;2023-03-23T04:15:40;2.47;;;0.60;;
43345;SDS011;28937;51.160;4.146;2023-03-23T04:18:06;2.25;;;0.60;;
43345;SDS011;28937;51.160;4.146;2023-03-23T04:20:31;4.18;;;0.73;;
43345;SDS011;28937;51.160;4.146;2023-03-23T04:22:57;3.67;;;0.82;;
43345;SDS011;28937;51.160;4.146;2023-03-23T04:25:25;3.35;;;0.60;;
43345;SDS011;28937;51.160;4.146;2023-03-23T04:27:52;4.28;;;0.90;;
43345;SDS011;28937;51.160;4.146;2023-03-23T04:30:18;2.17;;;0.60;;
43345;SDS011;28937;51.160;4.146;2023-03-23T04:32:49;3.10;;;0.60;;
43345;SDS011;28937;51.160;4.146;2023-03-23T04:35:17;3.22;;;1.02;;
43345;SDS011;28937;51.160;4.146;2023-03-23T04:37:44;2.40;;;0.70;;
43345;SDS011;28937;51.160;4.146;2023-03-23T04:40:10;3.67;;;0.90;;
43345;SDS011;28937;51.160;4.146;2023-03-23T04:42:37;2.67;;;0.55;;
43345;SDS011;28937;51.160;4.146;2023-03-23T04:45:04;4.20;;;1.05;;
43345;SDS011;28937;51.160;4.146;2023-03-23T04:47:33;2.53;;;1.02;;
43345;SDS011;28937;51.160;4.146;2023-03-23T04:50:05;3.88;;;0.98;;
43345;SDS011;28937;51.160;4.146;2023-03-23T04:52:37;2.53;;;0.95;;
43345;SDS011;28937;51.160;4.146;2023-03-23T04:55:04;2.83;;;0.60;;
43345;SDS011;28937;51.160;4.146;2023-03-23T04:57:30;2.30;;;0.77;;
43345;SDS011;28937;51.160;4.146;2023-03-23T04:59:56;3.33;;;0.88;;
43345;SDS011;28937;51.160;4.146;2023-03-23T05:02:22;2.50;;;0.75;;
43345;SDS011;28937;51.160;4.146;2023-03-23T05:04:48;4.85;;;1.00;;
43345;SDS011;28937;51.160;4.146;2023-03-23T05:07:14;3.05;;;0.95;;
43345;SDS011;28937;51.160;4.146;2023-03-23T05:09:40;2.92;;;1.00;;
43345;SDS011;28937;51.160;4.146;2023-03-23T05:12:07;5.75;;;1.02;;
43345;SDS011;28937;51.160;4.146;2023-03-23T05:14:34;3.33;;;0.82;;
43345;SDS011;28937;51.160;4.146;2023-03-23T05:17:00;3.33;;;0.90;;
43345;SDS011;28937;51.160;4.146;2023-03-23T05:19:26;2.95;;;0.95;;
43345;SDS011;28937;51.160;4.146;2023-03-23T05:21:53;4.85;;;1.02;;
43345;SDS011;28937;51.160;4.146;2023-03-23T05:24:19;4.70;;;1.10;;
43345;SDS011;28937;51.160;4.146;2023-03-23T05:26:45;4.40;;;0.98;;
43345;SDS011;28937;51.160;4.146;2023-03-23T05:29:13;4.60;;;1.10;;
43345;SDS011;28937;51.160;4.146;2023-03-23T05:31:39;3.10;;;0.57;;
43345;SDS011;28937;51.160;4.146;2023-03-23T05:34:05;4.57;;;1.15;;
43345;SDS011;28937;51.160;4.146;2023-03-23T05:36:30;3.53;;;1.00;;
43345;SDS011;28937;51.160;4.146;2023-03-23T05:38:56;2.90;;;0.68;;
43345;SDS011;28937;51.160;4.146;2023-03-23T05:41:21;6.28;;;1.67;;
43345;SDS011;28937;51.160;4.146;2023-03-23T05:43:48;5.28;;;1.30;;
43345;SDS011;28937;51.160;4.146;2023-03-23T05:46:13;4.70;;;1.30;;
43345;SDS011;28937;51.160;4.146;2023-03-23T05:48:39;8.02;;;1.63;;
43345;SDS011;28937;51.160;4.146;2023-03-23T05:51:05;7.22;;;1.42;;
43345;SDS011;28937;51.160;4.146;2023-03-23T05:53:30;8.13;;;1.70;;
43345;SDS011;28937;51.160;4.146;2023-03-23T05:56:00;3.67;;;1.15;;
43345;SDS011;28937;51.160;4.146;2023-03-23T05:58:26;5.30;;;1.60;;
43345;SDS011;28937;51.160;4.146;2023-03-23T06:00:52;5.22;;;1.80;;
43345;SDS011;28937;51.160;4.146;2023-03-23T06:03:18;4.45;;;1.25;;
43345;SDS011;28937;51.160;4.146;2023-03-23T06:05:44;5.47;;;1.40;;
43345;SDS011;28937;51.160;4.146;2023-03-23T06:08:10;6.78;;;2.13;;
43345;SDS011;28937;51.160;4.146;2023-03-23T06:10:37;7.97;;;2.13;;
43345;SDS011;28937;51.160;4.146;2023-03-23T06:13:03;7.35;;;2.10;;
43345;SDS011;28937;51.160;4.146;2023-03-23T06:15:30;3.72;;;1.23;;
43345;SDS011;28937;51.160;4.146;2023-03-23T06:18:00;4.72;;;0.88;;
43345;SDS011;28937;51.160;4.146;2023-03-23T06:20:27;7.72;;;1.48;;
43345;SDS011;28937;51.160;4.146;2023-03-23T06:22:54;6.47;;;1.60;;
43345;SDS011;28937;51.160;4.146;2023-03-23T06:25:20;5.07;;;1.05;;
43345;SDS011;28937;51.160;4.146;2023-03-23T06:27:47;11.32;;;1.40;;
43345;SDS011;28937;51.160;4.146;2023-03-23T06:30:13;4.80;;;0.90;;
43345;SDS011;28937;51.160;4.146;2023-03-23T06:32:42;3.65;;;1.20;;
43345;SDS011;28937;51.160;4.146;2023-03-23T06:35:10;3.47;;;0.75;;
43345;SDS011;28937;51.160;4.146;2023-03-23T06:37:36;5.07;;;0.95;;
43345;SDS011;28937;51.160;4.146;2023-03-23T06:40:03;3.08;;;0.70;;
43345;SDS011;28937;51.160;4.146;2023-03-23T06:42:34;4.35;;;0.93;;
43345;SDS011;28937;51.160;4.146;2023-03-23T06:45:00;4.75;;;1.08;;
43345;SDS011;28937;51.160;4.146;2023-03-23T06:47:27;6.60;;;1.23;;
43345;SDS011;28937;51.160;4.146;2023-03-23T06:49:54;5.43;;;1.45;;
43345;SDS011;28937;51.160;4.146;2023-03-23T06:52:21;6.18;;;1.27;;
43345;SDS011;28937;51.160;4.146;2023-03-23T06:54:47;8.40;;;1.50;;
43345;SDS011;28937;51.160;4.146;2023-03-23T06:57:16;7.50;;;1.52;;
43345;SDS011;28937;51.160;4.146;2023-03-23T06:59:42;8.65;;;1.45;;
43345;SDS011;28937;51.160;4.146;2023-03-23T07:02:12;8.13;;;1.13;;
43345;SDS011;28937;51.160;4.146;2023-03-23T07:04:39;8.43;;;1.30;;
43345;SDS011;28937;51.160;4.146;2023-03-23T07:07:05;8.32;;;1.38;;
43345;SDS011;28937;51.160;4.146;2023-03-23T07:09:33;11.55;;;1.30;;
43345;SDS011;28937;51.160;4.146;2023-03-23T07:11:59;16.17;;;2.50;;
43345;SDS011;28937;51.160;4.146;2023-03-23T07:14:24;27.10;;;2.25;;
43345;SDS011;28937;51.160;4.146;2023-03-23T07:16:51;22.63;;;2.72;;
43345;SDS011;28937;51.160;4.146;2023-03-23T07:19:17;18.30;;;1.83;;
43345;SDS011;28937;51.160;4.146;2023-03-23T07:21:42;13.23;;;1.73;;
43345;SDS011;28937;51.160;4.146;2023-03-23T07:24:11;50.85;;;5.78;;
43345;SDS011;28937;51.160;4.146;2023-03-23T07:26:39;10.15;;;2.00;;
43345;SDS011;28937;51.160;4.146;2023-03-23T07:29:08;21.05;;;2.15;;
43345;SDS011;28937;51.160;4.146;2023-03-23T07:31:34;11.00;;;1.70;;
43345;SDS011;28937;51.160;4.146;2023-03-23T07:34:01;16.63;;;2.20;;
43345;SDS011;28937;51.160;4.146;2023-03-23T07:36:28;9.27;;;1.30;;
43345;SDS011;28937;51.160;4.146;2023-03-23T07:38:54;14.40;;;1.88;;
43345;SDS011;28937;51.160;4.146;2023-03-23T07:41:20;15.30;;;1.90;;
43345;SDS011;28937;51.160;4.146;2023-03-23T07:43:45;10.45;;;1.23;;
43345;SDS011;28937;51.160;4.146;2023-03-23T07:46:11;4.28;;;1.02;;
43345;SDS011;28937;51.160;4.146;2023-03-23T07:48:38;4.47;;;0.88;;
43345;SDS011;28937;51.160;4.146;2023-03-23T07:51:04;8.73;;;1.33;;
43345;SDS011;28937;51.160;4.146;2023-03-23T07:53:30;6.20;;;1.08;;
43345;SDS011;28937;51.160;4.146;2023-03-23T07:55:56;3.33;;;0.85;;
43345;SDS011;28937;51.160;4.146;2023-03-23T07:58:22;6.53;;;1.30;;
43345;SDS011;28937;51.160;4.146;2023-03-23T08:00:47;5.60;;;1.35;;
43345;SDS011;28937;51.160;4.146;2023-03-23T08:03:14;5.85;;;1.20;;
43345;SDS011;28937;51.160;4.146;2023-03-23T08:05:40;5.05;;;1.13;;
43345;SDS011;28937;51.160;4.146;2023-03-23T08:08:07;4.35;;;1.20;;
43345;SDS011;28937;51.160;4.146;2023-03-23T08:10:34;4.03;;;1.38;;
43345;SDS011;28937;51.160;4.146;2023-03-23T08:13:00;27.20;;;3.08;;
43345;SDS011;28937;51.160;4.146;2023-03-23T08:15:26;39.78;;;4.07;;
43345;SDS011;28937;51.160;4.146;2023-03-23T08:17:53;25.08;;;3.22;;
43345;SDS011;28937;51.160;4.146;2023-03-23T08:20:19;24.63;;;3.40;;
43345;SDS011;28937;51.160;4.146;2023-03-23T08:22:50;26.75;;;3.10;;
43345;SDS011;28937;51.160;4.146;2023-03-23T08:25:18;19.90;;;2.10;;
43345;SDS011;28937;51.160;4.146;2023-03-23T08:27:44;16.58;;;2.03;;
43345;SDS011;28937;51.160;4.146;2023-03-23T08:30:15;14.30;;;2.10;;
43345;SDS011;28937;51.160;4.146;2023-03-23T08:32:42;9.27;;;1.90;;
43345;SDS011;28937;51.160;4.146;2023-03-23T08:35:09;7.68;;;1.23;;
43345;SDS011;28937;51.160;4.146;2023-03-23T08:37:36;7.75;;;1.42;;
43345;SDS011;28937;51.160;4.146;2023-03-23T08:40:03;12.02;;;1.58;;
43345;SDS011;28937;51.160;4.146;2023-03-23T08:42:40;9.07;;;1.50;;
43345;SDS011;28937;51.160;4.146;2023-03-23T08:45:08;10.75;;;1.63;;
43345;SDS011;28937;51.160;4.146;2023-03-23T08:47:36;13.88;;;1.75;;
43345;SDS011;28937;51.160;4.146;2023-03-23T08:50:03;6.65;;;1.33;;
43345;SDS011;28937;51.160;4.146;2023-03-23T08:52:30;13.32;;;1.55;;
43345;SDS011;28937;51.160;4.146;2023-03-23T08:54:55;16.15;;;2.45;;
43345;SDS011;28937;51.160;4.146;2023-03-23T08:57:22;7.55;;;1.80;;
43345;SDS011;28937;51.160;4.146;2023-03-23T08:59:48;7.07;;;1.55;;
43345;SDS011;28937;51.160;4.146;2023-03-23T09:02:13;9.52;;;1.48;;
43345;SDS011;28937;51.160;4.146;2023-03-23T09:04:39;7.35;;;1.30;;
43345;SDS011;28937;51.160;4.146;2023-03-23T09:07:07;6.57;;;1.20;;
43345;SDS011;28937;51.160;4.146;2023-03-23T09:09:34;4.68;;;1.10;;
43345;SDS011;28937;51.160;4.146;2023-03-23T09:12:02;6.72;;;1.30;;
43345;SDS011;28937;51.160;4.146;2023-03-23T09:14:28;5.95;;;0.90;;
43345;SDS011;28937;51.160;4.146;2023-03-23T09:16:53;6.38;;;1.27;;
43345;SDS011;28937;51.160;4.146;2023-03-23T09:19:19;7.05;;;1.50;;
43345;SDS011;28937;51.160;4.146;2023-03-23T09:21:45;10.80;;;1.67;;
43345;SDS011;28937;51.160;4.146;2023-03-23T09:24:11;10.32;;;2.00;;
43345;SDS011;28937;51.160;4.146;2023-03-23T09:26:37;20.02;;;2.38;;
43345;SDS011;28937;51.160;4.146;2023-03-23T09:29:02;15.90;;;2.17;;
43345;SDS011;28937;51.160;4.146;2023-03-23T09:31:28;21.50;;;2.45;;
43345;SDS011;28937;51.160;4.146;2023-03-23T09:33:57;24.55;;;2.72;;
43345;SDS011;28937;51.160;4.146;2023-03-23T09:36:23;13.10;;;2.33;;
43345;SDS011;28937;51.160;4.146;2023-03-23T09:38:50;16.63;;;2.08;;
43345;SDS011;28937;51.160;4.146;2023-03-23T09:46:59;10.30;;;2.20;;
43345;SDS011;28937;51.160;4.146;2023-03-23T09:52:15;11.02;;;1.40;;
43345;SDS011;28937;51.160;4.146;2023-03-23T09:54:43;8.85;;;2.05;;
43345;SDS011;28937;51.160;4.146;2023-03-23T09:57:24;10.07;;;1.48;;
43345;SDS011;28937;51.160;4.146;2023-03-23T10:00:02;8.95;;;1.63;;
43345;SDS011;28937;51.160;4.146;2023-03-23T10:02:34;7.60;;;1.25;;
43345;SDS011;28937;51.160;4.146;2023-03-23T10:05:29;10.27;;;1.30;;
43345;SDS011;28937;51.160;4.146;2023-03-23T10:07:57;9.40;;;1.55;;
43345;SDS011;28937;51.160;4.146;2023-03-23T10:10:26;7.80;;;1.20;;
43345;SDS011;28937;51.160;4.146;2023-03-23T10:13:01;9.57;;;1.52;;
43345;SDS011;28937;51.160;4.146;2023-03-23T10:15:36;8.32;;;1.13;;
43345;SDS011;28937;51.160;4.146;2023-03-23T10:18:15;6.80;;;1.30;;
43345;SDS011;28937;51.160;4.146;2023-03-23T10:21:15;4.15;;;1.15;;
43345;SDS011;28937;51.160;4.146;2023-03-23T10:23:51;5.25;;;1.50;;
43345;SDS011;28937;51.160;4.146;2023-03-23T10:29:22;7.00;;;1.75;;
43345;SDS011;28937;51.160;4.146;2023-03-23T10:31:53;5.35;;;0.93;;
43345;SDS011;28937;51.160;4.146;2023-03-23T10:34:31;4.85;;;0.82;;
43345;SDS011;28937;51.160;4.146;2023-03-23T10:39:29;2.97;;;0.60;;
43345;SDS011;28937;51.160;4.146;2023-03-23T10:44:31;4.80;;;0.90;;
43345;SDS011;28937;51.160;4.146;2023-03-23T10:46:59;5.97;;;1.13;;
43345;SDS011;28937;51.160;4.146;2023-03-23T10:54:58;4.10;;;0.90;;
43345;SDS011;28937;51.160;4.146;2023-03-23T10:57:46;2.92;;;1.00;;
43345;SDS011;28937;51.160;4.146;2023-03-23T11:00:24;5.85;;;1.13;;
43345;SDS011;28937;51.160;4.146;2023-03-23T11:03:00;3.65;;;0.98;;
43345;SDS011;28937;51.160;4.146;2023-03-23T11:05:32;5.63;;;1.33;;
43345;SDS011;28937;51.160;4.146;2023-03-23T11:08:09;7.30;;;1.30;;
43345;SDS011;28937;51.160;4.146;2023-03-23T11:10:42;11.23;;;2.28;;
43345;SDS011;28937;51.160;4.146;2023-03-23T11:13:13;7.82;;;1.52;;
43345;SDS011;28937;51.160;4.146;2023-03-23T11:15:44;7.25;;;1.85;;
43345;SDS011;28937;51.160;4.146;2023-03-23T11:18:21;9.48;;;1.80;;
43345;SDS011;28937;51.160;4.146;2023-03-23T11:21:11;11.20;;;1.83;;
43345;SDS011;28937;51.160;4.146;2023-03-23T11:23:42;13.55;;;2.17;;
43345;SDS011;28937;51.160;4.146;2023-03-23T11:26:16;10.82;;;1.98;;
43345;SDS011;28937;51.160;4.146;2023-03-23T11:28:46;8.43;;;2.22;;
43345;SDS011;28937;51.160;4.146;2023-03-23T11:31:21;12.95;;;2.40;;
43345;SDS011;28937;51.160;4.146;2023-03-23T11:34:02;10.30;;;2.00;;
43345;SDS011;28937;51.160;4.146;2023-03-23T11:36:40;8.15;;;2.10;;
43345;SDS011;28937;51.160;4.146;2023-03-23T11:39:24;9.25;;;2.13;;
43345;SDS011;28937;51.160;4.146;2023-03-23T11:41:55;13.77;;;2.33;;
43345;SDS011;28937;51.160;4.146;2023-03-23T11:44:23;8.93;;;1.88;;
43345;SDS011;28937;51.160;4.146;2023-03-23T11:50:02;10.50;;;1.92;;
43345;SDS011;28937;51.160;4.146;2023-03-23T11:58:20;9.23;;;2.63;;
43345;SDS011;28937;51.160;4.146;2023-03-23T12:00:49;7.50;;;1.75;;
43345;SDS011;28937;51.160;4.146;2023-03-23T12:03:21;9.68;;;1.77;;
43345;SDS011;28937;51.160;4.146;2023-03-23T12:11:32;13.48;;;2.30;;
43345;SDS011;28937;51.160;4.146;2023-03-23T12:22:22;12.93;;;2.53;;
43345;SDS011;28937;51.160;4.146;2023-03-23T12:25:01;9.75;;;2.45;;
43345;SDS011;28937;51.160;4.146;2023-03-23T12:27:48;7.70;;;2.17;;
43345;SDS011;28937;51.160;4.146;2023-03-23T12:44:20;10.65;;;3.47;;
43345;SDS011;28937;51.160;4.146;2023-03-23T12:55:21;13.63;;;8.13;;
43345;SDS011;28937;51.160;4.146;2023-03-23T12:58:04;21.55;;;6.85;;
43345;SDS011;28937;51.160;4.146;2023-03-23T13:03:39;13.85;;;7.80;;
43345;SDS011;28937;51.160;4.146;2023-03-23T13:11:39;13.10;;;6.53;;
43345;SDS011;28937;51.160;4.146;2023-03-23T13:22:04;11.32;;;4.47;;
43345;SDS011;28937;51.160;4.146;2023-03-23T13:24:50;15.35;;;4.95;;
43345;SDS011;28937;51.160;4.146;2023-03-23T13:27:22;14.30;;;5.18;;
43345;SDS011;28937;51.160;4.146;2023-03-23T13:29:53;17.60;;;5.60;;
43345;SDS011;28937;51.160;4.146;2023-03-23T13:32:28;13.05;;;4.40;;
43345;SDS011;28937;51.160;4.146;2023-03-23T13:34:55;10.35;;;3.75;;
43345;SDS011;28937;51.160;4.146;2023-03-23T13:37:24;16.73;;;4.15;;
43345;SDS011;28937;51.160;4.146;2023-03-23T13:42:55;11.00;;;3.40;;
43345;SDS011;28937;51.160;4.146;2023-03-23T13:48:04;9.50;;;2.90;;
43345;SDS011;28937;51.160;4.146;2023-03-23T13:50:53;8.77;;;2.30;;
43345;SDS011;28937;51.160;4.146;2023-03-23T13:53:22;8.98;;;2.63;;
43345;SDS011;28937;51.160;4.146;2023-03-23T13:58:48;8.15;;;2.85;;
43345;SDS011;28937;51.160;4.146;2023-03-23T14:01:34;8.73;;;2.07;;
43345;SDS011;28937;51.160;4.146;2023-03-23T14:04:03;10.75;;;2.30;;
43345;SDS011;28937;51.160;4.146;2023-03-23T14:06:35;8.75;;;2.38;;
43345;SDS011;28937;51.160;4.146;2023-03-23T14:09:06;6.60;;;2.10;;
43345;SDS011;28937;51.160;4.146;2023-03-23T14:12:00;6.95;;;1.83;;
43345;SDS011;28937;51.160;4.146;2023-03-23T14:14:41;7.05;;;1.83;;
43345;SDS011;28937;51.160;4.146;2023-03-23T14:19:50;6.93;;;1.77;;
43345;SDS011;28937;51.160;4.146;2023-03-23T14:24:49;9.13;;;1.90;;
43345;SDS011;28937;51.160;4.146;2023-03-23T14:27:17;7.40;;;1.88;;
43345;SDS011;28937;51.160;4.146;2023-03-23T14:29:45;5.75;;;1.77;;
43345;SDS011;28937;51.160;4.146;2023-03-23T14:32:21;7.05;;;1.75;;
43345;SDS011;28937;51.160;4.146;2023-03-23T14:34:51;5.20;;;1.60;;
43345;SDS011;28937;51.160;4.146;2023-03-23T14:37:17;4.95;;;1.48;;
43345;SDS011;28937;51.160;4.146;2023-03-23T14:39:44;4.60;;;1.50;;
43345;SDS011;28937;51.160;4.146;2023-03-23T14:42:14;4.85;;;1.50;;
43345;SDS011;28937;51.160;4.146;2023-03-23T14:44:43;8.02;;;1.70;;
43345;SDS011;28937;51.160;4.146;2023-03-23T14:47:18;7.50;;;1.95;;
43345;SDS011;28937;51.160;4.146;2023-03-23T14:49:45;7.70;;;1.45;;
43345;SDS011;28937;51.160;4.146;2023-03-23T14:52:11;10.55;;;1.92;;
43345;SDS011;28937;51.160;4.146;2023-03-23T14:54:39;6.65;;;1.85;;
43345;SDS011;28937;51.160;4.146;2023-03-23T15:00:23;5.68;;;1.90;;
43345;SDS011;28937;51.160;4.146;2023-03-23T15:02:58;8.77;;;1.83;;
43345;SDS011;28937;51.160;4.146;2023-03-23T15:05:27;11.38;;;2.20;;
43345;SDS011;28937;51.160;4.146;2023-03-23T15:07:57;7.03;;;2.10;;
43345;SDS011;28937;51.160;4.146;2023-03-23T15:10:27;7.70;;;2.55;;
43345;SDS011;28937;51.160;4.146;2023-03-23T15:12:53;10.90;;;2.38;;
43345;SDS011;28937;51.160;4.146;2023-03-23T15:15:27;7.72;;;2.50;;
43345;SDS011;28937;51.160;4.146;2023-03-23T15:17:55;9.38;;;1.90;;
43345;SDS011;28937;51.160;4.146;2023-03-23T15:20:24;7.43;;;2.10;;
43345;SDS011;28937;51.160;4.146;2023-03-23T15:23:08;9.30;;;2.30;;
43345;SDS011;28937;51.160;4.146;2023-03-23T15:25:39;7.33;;;1.77;;
43345;SDS011;28937;51.160;4.146;2023-03-23T15:30:48;11.30;;;2.55;;
43345;SDS011;28937;51.160;4.146;2023-03-23T15:33:16;6.65;;;2.10;;
43345;SDS011;28937;51.160;4.146;2023-03-23T15:35:46;8.70;;;2.42;;
43345;SDS011;28937;51.160;4.146;2023-03-23T15:38:24;8.32;;;2.05;;
43345;SDS011;28937;51.160;4.146;2023-03-23T15:40:51;11.30;;;2.50;;
43345;SDS011;28937;51.160;4.146;2023-03-23T15:43:19;13.82;;;2.45;;
43345;SDS011;28937;51.160;4.146;2023-03-23T15:48:30;10.25;;;2.63;;
43345;SDS011;28937;51.160;4.146;2023-03-23T15:51:19;9.52;;;2.38;;
43345;SDS011;28937;51.160;4.146;2023-03-23T15:53:46;5.35;;;1.98;;
43345;SDS011;28937;51.160;4.146;2023-03-23T15:56:12;10.20;;;2.10;;
43345;SDS011;28937;51.160;4.146;2023-03-23T15:58:38;10.73;;;2.45;;
43345;SDS011;28937;51.160;4.146;2023-03-23T16:01:06;11.02;;;2.60;;
43345;SDS011;28937;51.160;4.146;2023-03-23T16:03:50;9.65;;;2.55;;
43345;SDS011;28937;51.160;4.146;2023-03-23T16:06:19;14.30;;;2.80;;
43345;SDS011;28937;51.160;4.146;2023-03-23T16:08:46;9.45;;;2.58;;
43345;SDS011;28937;51.160;4.146;2023-03-23T16:11:12;14.30;;;3.08;;
43345;SDS011;28937;51.160;4.146;2023-03-23T16:13:39;14.40;;;3.00;;
43345;SDS011;28937;51.160;4.146;2023-03-23T16:16:05;12.07;;;2.95;;
43345;SDS011;28937;51.160;4.146;2023-03-23T16:18:35;16.20;;;3.35;;
43345;SDS011;28937;51.160;4.146;2023-03-23T16:21:01;10.77;;;2.60;;
43345;SDS011;28937;51.160;4.146;2023-03-23T16:23:27;14.38;;;3.30;;
43345;SDS011;28937;51.160;4.146;2023-03-23T16:25:53;10.73;;;2.80;;
43345;SDS011;28937;51.160;4.146;2023-03-23T16:28:18;9.75;;;2.90;;
43345;SDS011;28937;51.160;4.146;2023-03-23T16:30:44;15.93;;;3.20;;
43345;SDS011;28937;51.160;4.146;2023-03-23T16:33:11;9.02;;;2.28;;
43345;SDS011;28937;51.160;4.146;2023-03-23T16:35:37;9.85;;;2.88;;
43345;SDS011;28937;51.160;4.146;2023-03-23T16:38:03;12.95;;;3.40;;
43345;SDS011;28937;51.160;4.146;2023-03-23T16:40:28;10.30;;;2.63;;
43345;SDS011;28937;51.160;4.146;2023-03-23T16:42:54;13.73;;;2.83;;
43345;SDS011;28937;51.160;4.146;2023-03-23T16:45:20;10.57;;;3.00;;
43345;SDS011;28937;51.160;4.146;2023-03-23T16:47:47;8.32;;;2.80;;
43345;SDS011;28937;51.160;4.146;2023-03-23T16:50:15;9.13;;;2.33;;
43345;SDS011;28937;51.160;4.146;2023-03-23T16:52:42;10.77;;;2.53;;
43345;SDS011;28937;51.160;4.146;2023-03-23T16:55:11;7.47;;;2.13;;
43345;SDS011;28937;51.160;4.146;2023-03-23T16:57:38;10.00;;;2.20;;
43345;SDS011;28937;51.160;4.146;2023-03-23T17:00:05;9.65;;;2.40;;
43345;SDS011;28937;51.160;4.146;2023-03-23T17:02:34;9.43;;;2.65;;
43345;SDS011;28937;51.160;4.146;2023-03-23T17:05:01;12.77;;;2.58;;
43345;SDS011;28937;51.160;4.146;2023-03-23T17:07:27;8.65;;;2.40;;
43345;SDS011;28937;51.160;4.146;2023-03-23T17:09:53;11.15;;;2.15;;
43345;SDS011;28937;51.160;4.146;2023-03-23T17:12:19;9.50;;;2.15;;